Time;durP1;ratioP1;P1;durP2;ratioP2;P2;SDS_P1;SDS_P2;PMS_P1;PMS_P2;Temp;Humidity;BMP_temperature;BMP_pressure;BME280_temperature;BME280_humidity;BME280_pressure;Samples;Min_cycle;Max_cycle;Signal;HPM_P1;HPM_P2
2023/07/31 00:01:02;;;;;;;4.90;1.60;;;;;;;-145.00;50.81;73309.44;5033959;28;20080;-75
2023/07/31 00:03:28;;;;;;;5.40;1.63;;;;;;;-145.00;50.85;73305.28;5034368;28;20048;-76
2023/07/31 00:05:55;;;;;;;4.85;1.65;;;;;;;-145.00;51.49;73330.25;5033959;28;20124;-76
2023/07/31 00:08:22;;;;;;;4.88;1.55;;;;;;;-145.00;50.95;73309.44;5033797;28;20057;-76
2023/07/31 00:10:52;;;;;;;4.25;1.90;;;;;;;-145.00;51.13;73278.22;5033842;28;20068;-75
2023/07/31 00:13:18;;;;;;;3.92;2.00;;;;;;;-145.00;51.18;73269.88;5033609;28;20140;-76
2023/07/31 00:15:45;;;;;;;4.68;1.60;;;;;;;-145.00;50.91;73265.72;5034023;28;20052;-76
2023/07/31 00:18:12;;;;;;;5.72;2.00;;;;;;;-145.00;51.05;73271.97;5033770;28;20044;-75
2023/07/31 00:20:38;;;;;;;5.65;2.00;;;;;;;-145.00;50.70;73282.38;5033391;28;20041;-75
2023/07/31 00:23:04;;;;;;;3.83;1.70;;;;;;;-145.00;50.64;73307.34;5033009;28;20041;-75
2023/07/31 00:25:31;;;;;;;5.47;1.70;;;;;;;-145.00;50.76;73292.78;5033035;28;20057;-75
2023/07/31 00:27:59;;;;;;;4.72;2.17;;;;;;;-145.00;50.43;73309.44;5033414;28;20048;-75
2023/07/31 00:30:26;;;;;;;4.93;1.60;;;;;;;-145.00;51.07;73330.25;5033031;28;20045;-76
2023/07/31 00:32:53;;;;;;;5.90;2.15;;;;;;;-145.00;51.88;73363.56;5033017;28;20096;-75
2023/07/31 00:35:19;;;;;;;5.45;1.80;;;;;;;-145.00;52.69;73401.06;5032450;28;20672;-76
2023/07/31 00:37:47;;;;;;;6.20;1.75;;;;;;;-145.00;52.40;73388.56;5033331;28;20045;-75
2023/07/31 00:40:14;;;;;;;4.50;1.55;;;;;;;-145.00;51.83;73359.41;5032446;28;20043;-75
2023/07/31 00:42:41;;;;;;;5.25;1.55;;;;;;;-145.00;50.99;73321.94;5032618;28;20049;-75
2023/07/31 00:45:09;;;;;;;3.42;1.50;;;;;;;-145.00;50.87;73294.88;5032797;28;20042;-75
2023/07/31 00:47:36;;;;;;;3.80;1.40;;;;;;;-145.00;50.80;73288.63;5032529;28;20046;-75
2023/07/31 00:50:02;;;;;;;3.42;1.58;;;;;;;-145.00;50.81;73280.28;5032145;28;20420;-74
2023/07/31 00:52:29;;;;;;;3.58;1.60;;;;;;;-145.00;50.59;73274.06;5032392;28;20128;-75
2023/07/31 00:54:55;;;;;;;2.58;1.23;;;;;;;-145.00;50.51;73271.97;5032790;28;20049;-76
2023/07/31 00:57:22;;;;;;;3.28;1.52;;;;;;;-145.00;50.34;73259.47;5031998;28;20157;-75
2023/07/31 00:59:47;;;;;;;2.70;1.35;;;;;;;-145.00;50.70;73255.31;5032141;28;20038;-75
2023/07/31 01:02:15;;;;;;;3.03;1.38;;;;;;;-145.00;51.01;73259.47;5031781;28;20059;-75
2023/07/31 01:04:44;;;;;;;2.33;1.35;;;;;;;-145.00;51.08;73255.31;5032316;28;20041;-75
2023/07/31 01:07:14;;;;;;;3.67;1.60;;;;;;;-145.00;51.50;73276.13;5032271;28;20041;-75
2023/07/31 01:09:45;;;;;;;3.60;1.50;;;;;;;-145.00;50.99;73261.56;5031514;28;20057;-75
2023/07/31 01:12:16;;;;;;;2.58;1.42;;;;;;;-145.00;50.82;73261.56;5031387;28;20037;-75
2023/07/31 01:14:52;;;;;;;4.40;1.58;;;;;;;-145.00;51.11;73263.63;5031894;28;20496;-75
2023/07/31 01:17:20;;;;;;;2.08;1.50;;;;;;;-145.00;51.23;73271.97;5031891;28;20057;-75
2023/07/31 01:19:48;;;;;;;4.82;1.92;;;;;;;-145.00;50.97;73261.56;5031968;28;20038;-76
2023/07/31 01:22:36;;;;;;;5.65;1.58;;;;;;;-145.00;51.16;73251.16;5031807;28;20412;-75
2023/07/31 01:25:16;;;;;;;3.95;1.67;;;;;;;-145.00;51.17;73251.16;5031711;28;20489;-75
2023/07/31 01:27:51;;;;;;;5.55;1.50;;;;;;;-145.00;51.28;73242.81;5032566;28;20048;-76
2023/07/31 01:30:25;;;;;;;2.95;1.63;;;;;;;-145.00;50.87;73242.81;5031640;28;20050;-76
2023/07/31 01:32:55;;;;;;;2.60;1.60;;;;;;;-145.00;50.96;73253.22;5032171;28;20136;-76
2023/07/31 01:35:22;;;;;;;4.75;1.70;;;;;;;-145.00;50.85;73242.81;5031273;28;20759;-75
2023/07/31 01:37:48;;;;;;;2.42;1.50;;;;;;;-145.00;51.17;73238.66;5031890;28;20056;-75
2023/07/31 01:40:15;;;;;;;2.40;1.35;;;;;;;-145.00;50.79;73242.81;5022333;28;20524;-75
2023/07/31 01:42:41;;;;;;;3.85;1.67;;;;;;;-145.00;50.91;73238.66;5038890;28;20064;-75
2023/07/31 01:45:10;;;;;;;3.88;1.83;;;;;;;-145.00;51.58;73238.66;5032623;28;20048;-75
2023/07/31 01:47:37;;;;;;;3.63;1.38;;;;;;;-145.00;51.50;73246.97;5032477;28;20628;-75
2023/07/31 01:50:04;;;;;;;2.75;1.40;;;;;;;-145.00;51.55;73251.16;5031281;28;20052;-75
2023/07/31 01:52:30;;;;;;;5.82;1.70;;;;;;;-145.00;51.72;73244.91;5032270;28;20038;-75
2023/07/31 01:54:57;;;;;;;3.92;1.83;;;;;;;-145.00;52.05;73246.97;5031504;28;20405;-76
2023/07/31 01:57:23;;;;;;;4.80;1.95;;;;;;;-145.00;52.20;73246.97;5031451;28;20428;-75
2023/07/31 01:59:50;;;;;;;3.25;1.63;;;;;;;-145.00;52.30;73246.97;5031519;28;20520;-75
2023/07/31 02:02:17;;;;;;;3.35;1.50;;;;;;;-145.00;52.62;73246.97;5031190;28;20042;-75
2023/07/31 02:04:44;;;;;;;3.53;1.55;;;;;;;-145.00;52.91;73263.63;5031422;28;20045;-77
2023/07/31 02:07:10;;;;;;;3.47;1.70;;;;;;;-145.00;53.41;73251.16;5031215;28;20413;-75
2023/07/31 02:09:37;;;;;;;2.92;1.65;;;;;;;-145.00;53.29;73246.97;5031049;28;20133;-75
2023/07/31 02:12:04;;;;;;;3.55;1.75;;;;;;;-145.00;53.47;73253.22;5030851;28;20038;-74
2023/07/31 02:14:30;;;;;;;4.50;1.98;;;;;;;-145.00;53.39;73246.97;5031574;28;20052;-75
2023/07/31 02:16:57;;;;;;;2.75;1.40;;;;;;;-145.00;54.02;73246.97;5031431;28;20037;-75
2023/07/31 02:19:24;;;;;;;3.85;1.70;;;;;;;-145.00;54.36;73253.22;5030966;28;20053;-75
2023/07/31 02:21:51;;;;;;;4.40;1.80;;;;;;;-145.00;54.08;73255.31;5031250;28;20052;-74
2023/07/31 02:24:18;;;;;;;4.80;2.13;;;;;;;-145.00;54.66;73251.16;5030832;28;20045;-77
2023/07/31 02:26:44;;;;;;;4.90;1.83;;;;;;;-145.00;54.72;73251.16;5030511;28;20046;-77
2023/07/31 02:29:11;;;;;;;3.70;1.83;;;;;;;-145.00;55.06;73251.16;5029665;28;20033;-77
2023/07/31 02:31:37;;;;;;;4.97;1.88;;;;;;;-145.00;55.04;73249.06;5030537;28;20058;-77
2023/07/31 02:34:03;;;;;;;3.42;1.80;;;;;;;-145.00;54.92;73259.47;5030165;28;20048;-74
2023/07/31 02:36:31;;;;;;;3.65;1.90;;;;;;;-145.00;54.77;73271.97;5031145;28;20037;-75
2023/07/31 02:38:58;;;;;;;4.43;1.95;;;;;;;-145.00;54.87;73280.28;5030609;28;20041;-75
2023/07/31 02:41:24;;;;;;;3.28;1.65;;;;;;;-145.00;54.96;73280.28;5030178;28;20527;-75
2023/07/31 02:43:51;;;;;;;6.88;1.88;;;;;;;-145.00;55.28;73288.63;5031290;28;20045;-75
2023/07/31 02:46:17;;;;;;;4.93;2.10;;;;;;;-145.00;55.72;73292.78;5030777;28;20045;-75
2023/07/31 02:48:44;;;;;;;2.80;1.90;;;;;;;-145.00;55.78;73290.72;5031391;28;20049;-75
2023/07/31 02:51:10;;;;;;;2.45;1.60;;;;;;;-145.00;55.77;73296.94;5030294;28;20049;-75
2023/07/31 02:53:38;;;;;;;3.95;1.95;;;;;;;-145.00;56.16;73309.44;5031036;28;20049;-75
2023/07/31 02:56:05;;;;;;;2.80;1.85;;;;;;;-145.00;56.29;73301.13;5030080;28;20045;-74
2023/07/31 02:58:31;;;;;;;4.80;2.13;;;;;;;-145.00;56.64;73305.28;5030714;28;20042;-75
2023/07/31 03:00:59;;;;;;;4.18;2.13;;;;;;;-145.00;56.73;73309.44;5030684;28;20056;-74
2023/07/31 03:03:25;;;;;;;4.63;1.98;;;;;;;-145.00;56.64;73305.28;5034417;28;20048;-75
2023/07/31 03:05:52;;;;;;;5.75;2.30;;;;;;;-145.00;56.82;73317.78;5035013;28;20045;-75
2023/07/31 03:08:19;;;;;;;4.13;1.90;;;;;;;-145.00;56.82;73317.78;5034578;28;20096;-75
2023/07/31 03:10:47;;;;;;;3.58;1.92;;;;;;;-145.00;57.02;73313.59;5034479;28;20092;-75
2023/07/31 03:13:13;;;;;;;4.03;2.30;;;;;;;-145.00;57.05;73309.44;5034166;28;20054;-75
2023/07/31 03:15:43;;;;;;;4.68;2.50;;;;;;;-145.00;57.23;73309.44;5034898;28;20041;-74
2023/07/31 03:18:09;;;;;;;4.43;2.30;;;;;;;-145.00;57.22;73307.34;5033776;28;20046;-75
2023/07/31 03:20:36;;;;;;;5.35;2.13;;;;;;;-145.00;57.22;73301.13;5034772;28;20041;-75
2023/07/31 03:23:02;;;;;;;4.88;2.25;;;;;;;-145.00;57.17;73305.28;5034069;28;20049;-74
2023/07/31 03:25:29;;;;;;;4.18;2.30;;;;;;;-145.00;57.21;73313.59;5034184;28;20045;-74
2023/07/31 03:27:56;;;;;;;4.10;2.35;;;;;;;-145.00;57.50;73313.59;5034344;28;20049;-75
2023/07/31 03:30:23;;;;;;;5.63;2.30;;;;;;;-145.00;57.33;73319.84;5034124;28;20052;-75
2023/07/31 03:32:49;;;;;;;3.22;2.00;;;;;;;-145.00;57.42;73317.78;5034106;28;20046;-75
2023/07/31 03:35:16;;;;;;;4.63;2.03;;;;;;;-145.00;57.76;73313.59;5035099;28;20044;-75
2023/07/31 03:37:42;;;;;;;5.03;2.08;;;;;;;-145.00;57.67;73321.94;5035131;28;20045;-75
2023/07/31 03:40:10;;;;;;;4.72;2.00;;;;;;;-145.00;57.81;73326.09;5034386;28;20063;-75
2023/07/31 03:42:37;;;;;;;4.60;2.35;;;;;;;-145.00;57.76;73319.84;5034241;28;20038;-75
2023/07/31 03:45:06;;;;;;;4.47;2.10;;;;;;;-145.00;57.92;73317.78;5034492;28;20049;-74
2023/07/31 03:47:33;;;;;;;4.50;2.40;;;;;;;-145.00;58.35;73305.28;5035407;28;20071;-75
2023/07/31 03:49:59;;;;;;;7.80;2.42;;;;;;;-145.00;58.16;73303.19;5036240;28;20064;-75
2023/07/31 03:52:24;;;;;;;3.30;2.03;;;;;;;-145.00;58.06;73303.19;5035265;28;20053;-76
2023/07/31 03:54:51;;;;;;;4.30;2.03;;;;;;;-145.00;57.83;73301.13;5036524;28;20132;-74
2023/07/31 03:57:17;;;;;;;4.10;2.45;;;;;;;-145.00;58.00;73303.19;5034639;28;20053;-75
2023/07/31 03:59:44;;;;;;;5.47;2.28;;;;;;;-145.00;58.00;73292.78;5033940;28;20049;-74
2023/07/31 04:02:14;;;;;;;3.90;2.58;;;;;;;-145.00;58.11;73290.72;5033358;28;20047;-75
2023/07/31 04:04:40;;;;;;;4.90;2.22;;;;;;;-145.00;58.03;73284.47;5033811;28;20080;-74
2023/07/31 04:07:07;;;;;;;4.70;2.30;;;;;;;-145.00;57.89;73292.78;5033102;28;20042;-74
2023/07/31 04:09:33;;;;;;;3.75;2.40;;;;;;;-145.00;57.88;73280.28;5033109;28;20133;-76
2023/07/31 04:12:00;;;;;;;6.15;2.38;;;;;;;-145.00;57.68;73282.38;5033121;28;20440;-75
2023/07/31 04:14:26;;;;;;;5.80;2.70;;;;;;;-145.00;57.48;73282.38;5032907;28;20046;-75
2023/07/31 04:16:53;;;;;;;3.38;2.13;;;;;;;-145.00;57.51;73276.13;5033852;28;20045;-75
2023/07/31 04:19:21;;;;;;;2.80;2.10;;;;;;;-145.00;57.44;73271.97;5033476;28;20099;-75
2023/07/31 04:21:47;;;;;;;5.93;2.45;;;;;;;-145.00;57.51;73259.47;5033504;28;20041;-75
2023/07/31 04:24:14;;;;;;;6.57;2.50;;;;;;;-145.00;57.64;73251.16;5033297;28;20059;-75
2023/07/31 04:26:40;;;;;;;4.43;2.53;;;;;;;-145.00;57.48;73238.66;5033198;28;20065;-75
2023/07/31 04:29:07;;;;;;;4.75;2.25;;;;;;;-145.00;57.12;73238.66;5032675;28;20037;-75
2023/07/31 04:31:34;;;;;;;3.58;2.17;;;;;;;-145.00;56.98;73234.50;5032332;28;20501;-75
2023/07/31 04:34:00;;;;;;;6.40;2.88;;;;;;;-145.00;56.96;73230.31;5032746;28;20052;-75
2023/07/31 04:36:28;;;;;;;4.93;2.20;;;;;;;-145.00;56.88;73224.09;5032202;28;20504;-75
2023/07/31 04:38:55;;;;;;;6.63;2.63;;;;;;;-145.00;56.61;73217.84;5032472;28;20053;-76
2023/07/31 04:41:22;;;;;;;4.50;2.53;;;;;;;-145.00;56.84;73249.06;5032043;28;20064;-75
2023/07/31 04:43:48;;;;;;;7.65;2.33;;;;;;;-145.00;57.02;73246.97;5032778;28;20527;-74
2023/07/31 04:46:15;;;;;;;4.38;2.00;;;;;;;-145.00;56.90;73228.25;5032112;28;20080;-74
2023/07/31 04:48:41;;;;;;;3.83;2.30;;;;;;;-145.00;56.21;73209.50;5033259;28;20048;-74
2023/07/31 04:51:09;;;;;;;3.58;2.33;;;;;;;-145.00;56.35;73217.84;5032774;28;20064;-74
2023/07/31 04:53:37;;;;;;;4.15;2.30;;;;;;;-145.00;56.94;73226.16;5032802;28;20095;-77
2023/07/31 04:56:04;;;;;;;5.93;2.60;;;;;;;-145.00;56.60;73197.00;5031755;28;20053;-76
2023/07/31 04:58:30;;;;;;;3.67;2.17;;;;;;;-145.00;56.04;73192.84;5031899;28;20052;-77
2023/07/31 05:00:57;;;;;;;5.05;2.25;;;;;;;-145.00;56.53;73199.09;5032455;28;20058;-77
2023/07/31 05:03:23;;;;;;;4.13;2.00;;;;;;;-145.00;56.14;73180.34;5031671;28;20049;-76
2023/07/31 05:05:50;;;;;;;5.18;2.05;;;;;;;-145.00;55.87;73169.94;5032995;28;20052;-75
2023/07/31 05:08:17;;;;;;;3.95;2.05;;;;;;;-145.00;55.71;73163.72;5031886;28;20051;-77
2023/07/31 05:10:45;;;;;;;5.28;2.33;;;;;;;-145.00;55.52;73161.63;5023865;28;20501;-77
2023/07/31 05:13:12;;;;;;;4.65;1.95;;;;;;;-145.00;55.56;73159.53;5033572;28;20048;-74
2023/07/31 05:15:38;;;;;;;6.30;2.70;;;;;;;-145.00;55.82;73161.63;5034357;28;20054;-74
2023/07/31 05:18:05;;;;;;;4.60;2.42;;;;;;;-145.00;55.88;73180.34;5032484;28;20048;-76
2023/07/31 05:20:31;;;;;;;6.22;2.53;;;;;;;-145.00;56.28;73197.00;5024783;28;20050;-77
2023/07/31 05:22:58;;;;;;;5.80;2.50;;;;;;;-145.00;56.27;73184.53;5032946;28;20041;-75
2023/07/31 05:25:24;;;;;;;6.63;3.15;;;;;;;-145.00;56.54;73190.78;5034366;28;20068;-75
2023/07/31 05:27:52;;;;;;;8.60;2.95;;;;;;;-145.00;56.88;73217.84;5036050;28;20041;-76
2023/07/31 05:30:19;;;;;;;4.03;2.20;;;;;;;-145.00;57.13;73228.25;5035860;28;20045;-76
2023/07/31 05:32:45;;;;;;;8.77;2.53;;;;;;;-145.00;57.59;73226.16;5037631;28;20045;-76
2023/07/31 05:35:12;;;;;;;3.83;2.25;;;;;;;-145.00;57.05;73184.53;5035893;28;20042;-79
2023/07/31 05:37:38;;;;;;;5.07;2.33;;;;;;;-145.00;56.58;73157.47;5036810;28;20428;-76
2023/07/31 05:40:06;;;;;;;5.30;2.40;;;;;;;-145.00;56.31;73147.06;5036656;28;20045;-78
2023/07/31 05:42:33;;;;;;;6.03;2.00;;;;;;;-145.00;56.49;73176.19;5035663;28;20378;-75
2023/07/31 05:45:00;;;;;;;7.72;2.33;;;;;;;-145.00;57.06;73182.44;5033777;28;20045;-76
2023/07/31 05:47:27;;;;;;;6.38;2.03;;;;;;;-145.00;56.57;73165.78;5009322;28;20042;-77
2023/07/31 05:49:54;;;;;;;3.58;2.20;;;;;;;-145.00;56.76;73163.72;5005299;28;20659;-77
2023/07/31 05:52:20;;;;;;;5.18;2.30;;;;;;;-145.00;56.83;73159.53;5021947;28;20062;-78
2023/07/31 05:54:46;;;;;;;7.53;2.40;;;;;;;-145.00;57.05;73155.38;5015641;28;20041;-77
2023/07/31 05:57:13;;;;;;;5.90;2.38;;;;;;;-145.00;56.32;73117.91;5014044;28;20413;-77
2023/07/31 05:59:39;;;;;;;7.10;2.25;;;;;;;-145.00;55.81;73122.06;5014593;28;20042;-77
2023/07/31 06:02:07;;;;;;;4.22;2.30;;;;;;;-145.00;55.63;73113.75;5015509;28;20060;-78
2023/07/31 06:04:34;;;;;;;5.13;2.33;;;;;;;-145.00;56.15;73105.41;5045308;28;20043;-80
2023/07/31 06:07:01;;;;;;;7.15;2.20;;;;;;;-145.00;54.83;73067.94;5045558;28;20052;-79
2023/07/31 06:09:28;;;;;;;3.67;2.28;;;;;;;-145.00;54.29;73084.59;5045647;28;20045;-80
2023/07/31 06:11:54;;;;;;;4.53;2.15;;;;;;;-145.00;54.14;73080.44;5046598;28;20058;-79
2023/07/31 06:14:21;;;;;;;3.95;2.05;;;;;;;-145.00;54.09;73070.03;5038055;28;20499;-75
2023/07/31 06:16:47;;;;;;;8.60;2.50;;;;;;;-145.00;54.08;73082.50;5030730;28;20041;-75
2023/07/31 06:19:15;;;;;;;5.55;2.20;;;;;;;-145.00;53.72;73065.84;5030409;28;20044;-74
2023/07/31 06:21:43;;;;;;;8.10;2.72;;;;;;;-145.00;54.11;73034.63;5030537;28;20049;-74
2023/07/31 06:24:12;;;;;;;5.60;2.28;;;;;;;-145.00;55.37;73076.25;5029633;28;20065;-75
2023/07/31 06:26:38;;;;;;;5.65;2.35;;;;;;;-145.00;54.41;73076.25;5030325;28;21628;-75
2023/07/31 06:29:05;;;;;;;4.88;2.08;;;;;;;-145.00;54.80;73072.09;5030715;28;20042;-74
2023/07/31 06:31:31;;;;;;;5.72;2.38;;;;;;;-145.00;55.55;73061.69;5030445;28;20045;-75
2023/07/31 06:33:58;;;;;;;6.25;2.15;;;;;;;-145.00;53.88;73051.28;5029960;28;20049;-75
2023/07/31 06:36:25;;;;;;;5.95;2.20;;;;;;;-145.00;53.82;73055.44;5031992;28;20499;-75
2023/07/31 06:38:52;;;;;;;5.07;2.17;;;;;;;-145.00;53.73;73053.38;5036414;28;20400;-75
2023/07/31 06:41:18;;;;;;;4.03;2.10;;;;;;;-145.00;53.67;73036.72;5036438;28;20045;-74
2023/07/31 06:43:45;;;;;;;5.55;2.50;;;;;;;-145.00;53.98;73065.84;5037156;28;20513;-75
2023/07/31 06:46:12;;;;;;;4.82;2.22;;;;;;;-145.00;53.70;73051.28;5036055;28;20065;-75
2023/07/31 06:48:39;;;;;;;3.90;2.45;;;;;;;-145.00;54.54;73065.84;5036797;28;20055;-78
2023/07/31 06:51:05;;;;;;;4.95;2.50;;;;;;;-145.00;54.06;73047.13;5031306;28;20136;-74
2023/07/31 06:53:33;;;;;;;6.22;2.30;;;;;;;-145.00;54.48;73051.28;5033685;28;20046;-73
2023/07/31 06:56:00;;;;;;;4.20;2.08;;;;;;;-145.00;53.98;73024.22;5033700;28;20071;-76
2023/07/31 06:58:26;;;;;;;6.03;2.10;;;;;;;-145.00;53.64;73005.47;5033644;28;20059;-76
2023/07/31 07:00:53;;;;;;;6.00;2.30;;;;;;;-145.00;53.79;73036.72;5035132;28;20046;-75
2023/07/31 07:03:20;;;;;;;4.05;2.30;;;;;;;-145.00;53.52;72995.06;5033288;28;20041;-74
2023/07/31 07:05:46;;;;;;;5.03;2.22;;;;;;;-145.00;52.82;72988.81;5034125;28;20049;-75
2023/07/31 07:08:13;;;;;;;2.75;1.83;;;;;;;-145.00;52.75;72984.66;5032609;28;20099;-75
2023/07/31 07:10:41;;;;;;;4.85;2.35;;;;;;;-145.00;53.03;73001.31;5033916;28;20045;-73
2023/07/31 07:13:07;;;;;;;4.93;1.92;;;;;;;-145.00;51.89;72993.00;5033634;28;20547;-73
2023/07/31 07:15:34;;;;;;;7.40;2.10;;;;;;;-145.00;51.22;72984.66;5034647;28;20624;-76
2023/07/31 07:18:00;;;;;;;3.47;1.65;;;;;;;-145.00;51.22;72995.06;5035598;28;20061;-77
2023/07/31 07:20:27;;;;;;;4.10;1.83;;;;;;;-145.00;51.41;72968.00;5033885;28;20386;-76
2023/07/31 07:22:53;;;;;;;4.05;1.88;;;;;;;-145.00;51.40;72984.66;5034442;28;20061;-76
2023/07/31 07:25:20;;;;;;;5.60;1.98;;;;;;;-145.00;50.27;72922.22;5034111;28;20495;-76
2023/07/31 07:27:48;;;;;;;4.60;1.90;;;;;;;-145.00;50.06;72922.22;5035034;28;20111;-75
2023/07/31 07:30:15;;;;;;;3.38;1.75;;;;;;;-145.00;50.35;72959.69;5034368;28;20052;-74
2023/07/31 07:32:42;;;;;;;5.10;2.08;;;;;;;-145.00;50.45;72934.69;5034480;28;20140;-74
2023/07/31 07:36:48;;;;;;;6.82;2.13;;;;;;;-145.00;51.03;72980.50;5088530;27;20885;-73
2023/07/31 07:39:15;;;;;;;3.90;2.00;;;;;;;-145.00;50.61;72972.16;5009198;28;20081;-74
2023/07/31 07:41:41;;;;;;;3.70;1.88;;;;;;;-145.00;50.39;72926.38;4983782;28;20051;-73
2023/07/31 07:44:08;;;;;;;32.55;4.32;;;;;;;-145.00;50.32;72893.06;4993770;28;20049;-74
2023/07/31 07:46:35;;;;;;;18.17;3.33;;;;;;;-145.00;49.63;72872.25;5007811;28;20048;-74
2023/07/31 07:49:01;;;;;;;55.60;4.25;;;;;;;-145.00;49.66;72838.94;4985211;28;20049;-72
2023/07/31 07:51:30;;;;;;;35.88;3.10;;;;;;;-145.00;49.75;72893.06;4974520;28;20051;-76
2023/07/31 07:53:57;;;;;;;73.00;4.55;;;;;;;-145.00;49.40;72880.56;4964655;28;20051;-75
2023/07/31 07:56:24;;;;;;;14.07;3.15;;;;;;;-145.00;48.89;72876.41;4963307;28;20047;-74
2023/07/31 07:58:51;;;;;;;45.45;3.95;;;;;;;-145.00;48.91;72764.00;5031015;28;20061;-75
2023/07/31 08:01:17;;;;;;;51.95;4.55;;;;;;;-145.00;47.24;72734.84;5030521;28;20062;-78
2023/07/31 08:03:44;;;;;;;59.15;14.70;;;;;;;-145.00;45.21;72709.88;4962452;28;20058;-74
2023/07/31 08:06:11;;;;;;;40.05;11.82;;;;;;;-145.00;44.42;72716.13;4987926;28;20048;-76
2023/07/31 08:08:38;;;;;;;23.88;4.28;;;;;;;-145.00;46.24;72776.47;5052301;28;20056;-76
2023/07/31 08:11:06;;;;;;;34.47;3.55;;;;;;;-145.00;45.88;72809.78;4968190;28;20051;-75
2023/07/31 08:13:33;;;;;;;34.55;4.03;;;;;;;-145.00;46.11;72784.81;4971024;28;20054;-79
2023/07/31 08:15:59;;;;;;;45.42;3.60;;;;;;;-145.00;46.04;72734.84;4962794;28;20051;-77
2023/07/31 08:18:26;;;;;;;34.95;3.72;;;;;;;-145.00;43.82;72705.69;4961965;28;20054;-79
2023/07/31 08:20:52;;;;;;;139.98;56.60;;;;;;;-145.00;44.15;72751.50;4963124;28;20053;-76
2023/07/31 08:23:19;;;;;;;51.85;4.35;;;;;;;-145.00;45.12;72730.69;4988273;28;20042;-77
2023/07/31 08:25:46;;;;;;;21.73;6.85;;;;;;;-145.00;44.45;72634.94;5001605;28;20039;-81
2023/07/31 08:28:14;;;;;;;50.80;16.67;;;;;;;-145.00;43.81;72668.22;5002143;28;20064;-78
2023/07/31 08:30:41;;;;;;;25.83;3.53;;;;;;;-145.00;44.06;72695.28;4986567;28;20050;-78
2023/07/31 08:33:08;;;;;;;20.88;3.03;;;;;;;-145.00;44.68;72745.25;4982566;28;20631;-77
2023/07/31 08:35:34;;;;;;;34.60;4.60;;;;;;;-145.00;44.99;72676.56;4981117;28;20532;-75
2023/07/31 08:38:01;;;;;;;28.23;3.58;;;;;;;-145.00;44.15;72664.06;4995485;28;20050;-74
2023/07/31 08:40:28;;;;;;;21.75;2.97;;;;;;;-145.00;44.08;72626.59;4977322;28;20058;-75
2023/07/31 08:43:01;;;;;;;32.83;4.53;;;;;;;-145.00;43.43;72676.56;4975919;28;20730;-77
2023/07/31 08:45:31;;;;;;;14.77;3.17;;;;;;;-145.00;43.37;72659.91;4980910;28;20051;-79
2023/07/31 08:47:59;;;;;;;23.60;3.65;;;;;;;-145.00;44.67;72605.78;4962763;28;20051;-77
2023/07/31 08:50:27;;;;;;;7.15;3.10;;;;;;;-145.00;43.15;72672.41;4961116;28;20047;-75
2023/07/31 08:52:54;;;;;;;15.10;3.17;;;;;;;-145.00;44.72;72693.22;4967895;28;20058;-75
2023/07/31 08:55:23;;;;;;;5.95;2.10;;;;;;;-145.00;45.39;72711.94;4959610;28;20055;-79
2023/07/31 08:57:52;;;;;;;9.93;2.80;;;;;;;-145.00;45.03;72716.13;4951270;28;20112;-80
2023/07/31 09:00:21;;;;;;;5.18;2.50;;;;;;;-145.00;44.33;72674.47;4958469;28;20066;-80
2023/07/31 09:02:55;;;;;;;11.43;2.95;;;;;;;-145.00;44.50;72709.88;4957803;28;20061;-80
2023/07/31 09:05:22;;;;;;;5.88;2.30;;;;;;;-145.00;45.44;72714.03;4958598;28;20514;-81
2023/07/31 09:07:50;;;;;;;14.27;3.60;;;;;;;-145.00;45.03;72764.00;4951271;28;20085;-78
2023/07/31 09:10:17;;;;;;;15.80;7.30;;;;;;;-145.00;46.67;72788.97;4949843;28;20045;-78
2023/07/31 09:12:45;;;;;;;3.72;2.65;;;;;;;-145.00;46.24;72753.59;4948553;28;20058;-75
2023/07/31 09:15:12;;;;;;;5.28;2.80;;;;;;;-145.00;45.64;72797.31;4963313;28;20062;-76
2023/07/31 09:17:38;;;;;;;5.32;2.20;;;;;;;-145.00;45.65;72755.66;4961830;28;20818;-77
2023/07/31 09:20:17;;;;;;;11.27;3.90;;;;;;;-145.00;45.09;72772.31;4955152;28;20061;-76
2023/07/31 09:22:45;;;;;;;23.20;3.67;;;;;;;-145.00;45.72;72757.75;4952229;28;20047;-76
2023/07/31 09:25:18;;;;;;;3.42;2.03;;;;;;;-145.00;46.09;72759.81;4948577;28;20059;-78
2023/07/31 09:27:49;;;;;;;3.53;1.70;;;;;;;-145.00;46.66;72766.06;4962230;28;20051;-77
2023/07/31 09:30:17;;;;;;;5.13;2.50;;;;;;;-145.00;45.24;72813.94;4967318;28;20047;-75
2023/07/31 09:32:43;;;;;;;3.53;1.70;;;;;;;-145.00;44.21;72805.63;4965031;28;20057;-78
2023/07/31 09:35:23;;;;;;;7.95;2.50;;;;;;;-145.00;44.83;72832.69;4968446;28;20054;-75
2023/07/31 09:37:51;;;;;;;16.35;3.40;;;;;;;-145.00;45.06;72776.47;4956189;28;20074;-76
2023/07/31 09:40:28;;;;;;;5.55;1.70;;;;;;;-145.00;44.42;72764.00;4948828;28;20050;-76
2023/07/31 09:42:55;;;;;;;5.10;2.15;;;;;;;-145.00;44.80;72768.16;4947427;28;20058;-76
2023/07/31 09:45:21;;;;;;;4.80;2.13;;;;;;;-145.00;44.69;72730.69;4948503;28;20093;-75
2023/07/31 09:47:48;;;;;;;7.65;2.17;;;;;;;-145.00;43.09;72693.22;4948107;28;20051;-76
2023/07/31 09:50:15;;;;;;;13.95;2.85;;;;;;;-145.00;43.02;72705.69;4948188;28;20055;-76
2023/07/31 09:52:43;;;;;;;5.85;2.33;;;;;;;-145.00;44.44;72726.53;4961464;28;20051;-76
2023/07/31 09:55:10;;;;;;;5.65;1.85;;;;;;;-145.00;43.47;72691.13;4966669;28;20047;-74
2023/07/31 09:57:41;;;;;;;6.30;1.95;;;;;;;-145.00;43.86;72709.88;4967914;28;20050;-76
2023/07/31 10:00:10;;;;;;;8.75;2.15;;;;;;;-145.00;44.18;72684.88;4963640;28;20055;-76
2023/07/31 10:02:37;;;;;;;3.72;1.58;;;;;;;-145.00;43.27;72651.59;4977901;28;20503;-79
2023/07/31 10:05:05;;;;;;;5.00;1.80;;;;;;;-145.00;42.62;72605.78;4965746;28;20777;-81
2023/07/31 10:07:38;;;;;;;7.57;2.63;;;;;;;-145.00;42.71;72530.84;4961137;28;20047;-78
2023/07/31 10:10:08;;;;;;;6.93;1.98;;;;;;;-145.00;41.57;72510.03;4968274;28;20051;-83
2023/07/31 10:12:36;;;;;;;7.22;1.88;;;;;;;-145.00;41.69;72537.09;4963135;28;20050;-77
2023/07/31 10:15:03;;;;;;;4.53;2.00;;;;;;;-145.00;42.33;72549.56;4961388;28;20055;-79
2023/07/31 10:17:31;;;;;;;3.88;1.60;;;;;;;-145.00;41.11;72426.75;4966168;28;20133;-78
2023/07/31 10:20:01;;;;;;;3.72;1.65;;;;;;;-145.00;41.57;72403.88;4973939;28;20054;-80
2023/07/31 10:22:28;;;;;;;5.13;2.10;;;;;;;-145.00;39.76;72399.72;4974917;28;20130;-80
2023/07/31 10:24:58;;;;;;;5.00;2.10;;;;;;;-145.00;40.09;72351.84;4969046;28;20046;-78
2023/07/31 10:27:26;;;;;;;3.95;1.75;;;;;;;-145.00;39.25;72283.13;4968826;28;20050;-79
2023/07/31 10:29:55;;;;;;;12.00;2.42;;;;;;;-145.00;39.18;72268.56;4968186;28;20047;-80
2023/07/31 10:32:23;;;;;;;6.13;1.90;;;;;;;-145.00;39.26;72360.16;4968595;28;20054;-78
2023/07/31 10:34:52;;;;;;;3.50;1.42;;;;;;;-145.00;40.73;72403.88;4969125;28;20066;-80
2023/07/31 10:37:26;;;;;;;3.67;1.58;;;;;;;-145.00;39.30;72322.69;4967423;28;20081;-80
2023/07/31 10:40:01;;;;;;;3.75;1.67;;;;;;;-145.00;40.14;72426.75;4950836;28;20057;-80
2023/07/31 10:42:34;;;;;;;5.05;1.90;;;;;;;-145.00;41.71;72395.53;4950955;28;20043;-79
2023/07/31 10:45:03;;;;;;;4.80;1.65;;;;;;;-145.00;42.62;72326.84;4948947;28;20458;-78
2023/07/31 10:47:30;;;;;;;8.43;2.30;;;;;;;-145.00;39.35;72343.50;4953719;28;20038;-79
2023/07/31 10:50:18;;;;;;;4.88;2.35;;;;;;;-145.00;39.99;72451.75;4965350;28;20055;-77
2023/07/31 10:52:47;;;;;;;4.28;1.80;;;;;;;-145.00;39.77;72414.28;4972592;28;20108;-78
2023/07/31 10:55:24;;;;;;;5.35;2.05;;;;;;;-145.00;40.00;72276.91;4960305;28;20047;-78
2023/07/31 10:57:53;;;;;;;4.32;2.10;;;;;;;-145.00;38.87;72185.31;4949026;28;20047;-77
2023/07/31 11:00:22;;;;;;;4.22;1.77;;;;;;;-145.00;37.89;72183.22;4947161;28;20055;-79
2023/07/31 11:03:01;;;;;;;2.35;1.67;;;;;;;-145.00;36.68;72212.38;4948772;28;20494;-79
2023/07/31 11:05:53;;;;;;;4.82;1.60;;;;;;;-145.00;37.94;72206.13;4949233;28;20491;-76
2023/07/31 11:08:22;;;;;;;4.40;1.63;;;;;;;-145.00;37.95;72212.38;4950907;28;20583;-77
2023/07/31 11:10:49;;;;;;;5.32;2.00;;;;;;;-145.00;37.36;72156.19;4946410;28;20079;-75
2023/07/31 11:13:17;;;;;;;5.47;1.85;;;;;;;-145.00;36.78;72110.38;4946651;28;20498;-78
2023/07/31 11:15:44;;;;;;;6.72;2.05;;;;;;;-145.00;36.08;72060.44;4947289;28;20054;-78
2023/07/31 11:18:11;;;;;;;6.47;2.22;;;;;;;-145.00;35.98;72043.78;4956173;28;20057;-78
2023/07/31 11:20:39;;;;;;;13.50;3.40;;;;;;;-145.00;36.01;72060.44;4946688;28;20070;-80